createdAt,value
2022-09-07T00:00:39.156Z,2.00
2022-09-07T00:04:21.097Z,2.20
2022-09-07T00:08:03.281Z,2.20
2022-09-07T00:11:45.333Z,2.25
2022-09-07T00:15:27.279Z,1.95
2022-09-07T00:19:09.314Z,1.87
2022-09-07T00:22:51.261Z,2.30
2022-09-07T00:26:33.326Z,2.17
2022-09-07T00:30:15.319Z,2.20
2022-09-07T00:34:00.676Z,1.98
2022-09-07T00:37:42.764Z,2.75
2022-09-07T00:41:24.932Z,2.70
2022-09-07T00:45:19.671Z,3.10
2022-09-07T00:49:16.279Z,2.10
2022-09-07T00:53:04.156Z,2.38
2022-09-07T00:56:48.982Z,2.87
2022-09-07T01:00:31.945Z,2.75
2022-09-07T01:04:15.095Z,2.22
2022-09-07T01:07:58.672Z,2.05
2022-09-07T01:11:41.010Z,2.88
2022-09-07T01:15:27.917Z,2.15
2022-09-07T01:19:42.738Z,2.38
2022-09-07T01:23:34.312Z,1.90
2022-09-07T01:27:47.538Z,2.25
2022-09-07T01:31:49.553Z,2.13
2022-09-07T01:35:34.156Z,2.23
2022-09-07T01:39:18.019Z,2.05
2022-09-07T01:43:12.000Z,1.92
2022-09-07T01:47:13.295Z,1.70
2022-09-07T01:51:03.754Z,2.22
2022-09-07T01:54:55.205Z,2.30
2022-09-07T01:58:43.704Z,2.15
2022-09-07T02:02:30.959Z,2.27
2022-09-07T02:06:50.389Z,2.45
2022-09-07T02:11:02.053Z,2.38
2022-09-07T02:14:52.655Z,2.40
2022-09-07T02:18:41.479Z,2.35
2022-09-07T02:22:28.340Z,2.90
2022-09-07T02:26:22.411Z,2.42
2022-09-07T02:30:04.554Z,2.47
2022-09-07T02:33:47.442Z,2.88
2022-09-07T02:37:29.671Z,2.92
2022-09-07T02:41:47.306Z,2.30
2022-09-07T02:46:01.564Z,3.20
2022-09-07T02:49:52.312Z,2.88
2022-09-07T02:53:46.082Z,3.40
2022-09-07T02:57:52.776Z,2.53
2022-09-07T03:02:16.993Z,2.70
2022-09-07T03:06:33.279Z,2.92
2022-09-07T03:10:15.974Z,2.95
2022-09-07T03:14:20.619Z,2.60
2022-09-07T03:18:02.757Z,2.50
2022-09-07T03:21:45.451Z,3.03
2022-09-07T03:25:27.368Z,2.55
2022-09-07T03:29:09.468Z,2.60
2022-09-07T03:32:51.427Z,2.43
2022-09-07T03:36:33.805Z,2.60
2022-09-07T03:40:16.432Z,2.53
2022-09-07T03:44:05.571Z,2.70
2022-09-07T03:47:47.554Z,2.20
2022-09-07T03:51:29.511Z,2.25
2022-09-07T03:55:11.793Z,2.03
2022-09-07T03:58:55.219Z,2.63
2022-09-07T04:02:37.226Z,2.50
2022-09-07T04:06:20.085Z,3.10
2022-09-07T04:10:02.260Z,2.70
2022-09-07T04:13:45.203Z,2.42
2022-09-07T04:17:27.086Z,2.50
2022-09-07T04:21:09.695Z,3.83
2022-09-07T04:24:51.592Z,2.95
2022-09-07T04:28:33.811Z,2.40
2022-09-07T04:32:16.135Z,2.83
2022-09-07T04:36:01.131Z,3.17
2022-09-07T04:39:43.251Z,3.15
2022-09-07T04:43:25.306Z,2.60
2022-09-07T04:47:07.387Z,2.93
2022-09-07T04:50:49.367Z,2.95
2022-09-07T04:54:31.369Z,3.00
2022-09-07T04:58:13.521Z,2.83
2022-09-07T05:01:55.440Z,3.33
2022-09-07T05:05:38.627Z,3.78
2022-09-07T05:09:20.694Z,2.92
2022-09-07T05:13:03.021Z,2.80
2022-09-07T05:16:45.118Z,2.80
2022-09-07T05:20:27.100Z,2.60
2022-09-07T05:24:10.248Z,3.13
2022-09-07T05:27:52.807Z,2.67
2022-09-07T05:31:34.862Z,2.85
2022-09-07T05:35:18.319Z,2.80
2022-09-07T05:39:00.289Z,2.95
2022-09-07T05:42:42.360Z,2.50
2022-09-07T05:46:24.487Z,2.70
2022-09-07T05:50:07.656Z,2.63
2022-09-07T05:53:50.706Z,3.00
2022-09-07T05:57:32.645Z,2.75
2022-09-07T06:01:15.035Z,2.87
2022-09-07T06:04:56.978Z,3.40
2022-09-07T06:08:43.418Z,3.42
2022-09-07T06:12:25.401Z,3.30
2022-09-07T06:16:08.311Z,2.53
2022-09-07T06:19:50.224Z,2.63
2022-09-07T06:23:33.209Z,3.05
2022-09-07T06:27:15.112Z,2.80
2022-09-07T06:31:01.809Z,2.65
2022-09-07T06:34:44.041Z,2.97
2022-09-07T06:38:31.815Z,3.40
2022-09-07T06:42:13.956Z,2.80
2022-09-07T06:45:56.090Z,2.60
2022-09-07T06:49:38.243Z,3.05
2022-09-07T06:53:39.513Z,3.03
2022-09-07T06:57:24.357Z,2.33
2022-09-07T07:01:18.609Z,2.80
2022-09-07T07:05:01.305Z,2.67
2022-09-07T07:09:29.997Z,2.55
2022-09-07T07:13:11.956Z,2.85
2022-09-07T07:17:01.288Z,2.87
2022-09-07T07:20:55.062Z,1.88
2022-09-07T07:24:53.530Z,2.40
2022-09-07T07:33:55.785Z,2.72
2022-09-07T07:43:16.443Z,2.50
2022-09-07T07:47:54.144Z,2.33
2022-09-07T07:56:01.028Z,2.70
2022-09-07T08:03:47.648Z,2.00
2022-09-07T08:11:50.429Z,2.30
2022-09-07T08:16:18.736Z,2.43
2022-09-07T08:20:30.311Z,2.13
2022-09-07T08:24:12.591Z,3.08
2022-09-07T08:28:28.694Z,2.57
2022-09-07T08:36:33.774Z,2.33
2022-09-07T08:40:49.699Z,2.20
2022-09-07T08:48:56.385Z,2.75
2022-09-07T08:53:13.977Z,2.20
2022-09-07T08:57:45.845Z,2.28
2022-09-07T09:02:35.074Z,1.98
2022-09-07T09:25:49.967Z,2.93
2022-09-07T09:29:33.582Z,2.08
2022-09-07T09:34:01.927Z,2.38
2022-09-07T09:38:13.101Z,2.63
2022-09-07T09:46:13.103Z,2.25
2022-09-07T09:55:36.171Z,1.92
2022-09-07T10:17:56.982Z,2.40
2022-09-07T10:22:10.318Z,2.22
2022-09-07T10:25:53.115Z,2.00
2022-09-07T10:30:21.417Z,1.67
2022-09-07T10:34:35.601Z,2.08
2022-09-07T10:47:17.038Z,1.67
2022-09-07T10:51:45.152Z,1.70
2022-09-07T10:55:55.464Z,1.80
2022-09-07T11:04:10.508Z,1.90
2022-09-07T11:09:15.716Z,1.60
2022-09-07T11:12:52.330Z,2.67
2022-09-07T11:20:55.667Z,1.70
2022-09-07T11:34:30.269Z,2.03
2022-09-07T11:38:46.094Z,1.40
2022-09-07T12:27:29.209Z,1.67
2022-09-07T12:39:50.478Z,1.63
2022-09-07T12:47:34.252Z,1.67
2022-09-07T13:08:51.956Z,1.23
2022-09-07T13:21:36.400Z,1.38
2022-09-07T13:26:05.132Z,1.33
2022-09-07T13:30:16.714Z,1.63
2022-09-07T13:33:59.534Z,2.20
2022-09-07T13:41:53.007Z,1.95
2022-09-07T13:46:20.813Z,1.40
2022-09-07T13:50:31.189Z,1.80
2022-09-07T13:58:42.355Z,1.73
2022-09-07T14:02:57.115Z,1.38
2022-09-07T14:06:39.715Z,1.45
2022-09-07T14:11:08.123Z,1.40
2022-09-07T14:15:18.186Z,1.50
2022-09-07T14:19:00.847Z,1.73
2022-09-07T14:26:48.678Z,1.87
2022-09-07T14:31:05.429Z,1.80
2022-09-07T14:34:48.928Z,1.20
2022-09-07T14:39:17.437Z,1.70
2022-09-07T14:43:29.675Z,1.60
2022-09-07T14:51:43.454Z,1.50
2022-09-07T14:55:55.486Z,1.30
2022-09-07T15:01:39.594Z,1.23
2022-09-07T15:10:41.200Z,1.48
2022-09-07T15:15:02.185Z,1.70
2022-09-07T15:23:15.539Z,1.90
2022-09-07T15:27:44.198Z,1.52
2022-09-07T15:35:37.358Z,1.58
2022-09-07T15:39:48.718Z,1.30
2022-09-07T15:43:31.464Z,1.60
2022-09-07T15:48:00.068Z,1.40
2022-09-07T15:52:13.406Z,1.48
2022-09-07T15:55:55.849Z,1.60
2022-09-07T16:00:23.947Z,1.73
2022-09-07T16:04:38.831Z,1.58
2022-09-07T16:21:30.564Z,1.67
2022-09-07T16:25:13.159Z,1.50
2022-09-07T16:37:32.548Z,1.10
2022-09-07T16:41:49.475Z,1.63
2022-09-07T16:49:58.151Z,2.35
2022-09-07T16:54:15.783Z,1.13
2022-09-07T17:06:35.386Z,1.23
2022-09-07T17:24:34.596Z,1.75
2022-09-07T17:28:17.273Z,2.05
2022-09-07T17:32:27.524Z,2.00
2022-09-07T17:40:33.056Z,1.42
2022-09-07T17:49:39.438Z,1.33
2022-09-07T17:54:03.395Z,1.50
2022-09-07T18:02:54.197Z,2.03
2022-09-07T18:29:10.531Z,1.40
2022-09-07T18:33:12.951Z,1.80
2022-09-07T18:36:55.416Z,1.83
2022-09-07T18:41:09.399Z,1.55
2022-09-07T18:48:54.494Z,1.42
2022-09-07T18:52:52.869Z,1.30
2022-09-07T18:56:35.187Z,1.73
2022-09-07T19:00:17.896Z,1.47
2022-09-07T19:04:00.023Z,1.60
2022-09-07T19:07:41.934Z,2.10
2022-09-07T19:11:25.196Z,1.77
2022-09-07T19:15:07.495Z,1.40
2022-09-07T19:18:55.422Z,2.42
2022-09-07T19:22:37.929Z,1.35
2022-09-07T19:26:20.162Z,0.90
2022-09-07T19:30:02.256Z,1.38
2022-09-07T19:33:44.116Z,0.90
2022-09-07T19:37:27.400Z,0.90
2022-09-07T19:41:12.960Z,1.30
2022-09-07T19:44:55.028Z,1.35
2022-09-07T19:48:37.730Z,0.90
2022-09-07T19:52:19.697Z,1.08
2022-09-07T19:56:13.060Z,1.80
2022-09-07T19:59:56.819Z,1.55
2022-09-07T20:03:39.883Z,1.33
2022-09-07T20:07:21.791Z,1.52
2022-09-07T20:11:09.718Z,1.20
2022-09-07T20:14:51.719Z,1.23
2022-09-07T20:18:35.897Z,1.95
2022-09-07T20:22:18.107Z,1.20
2022-09-07T20:26:02.228Z,1.70
2022-09-07T20:29:44.079Z,1.30
2022-09-07T20:33:25.979Z,1.33
2022-09-07T20:37:07.854Z,1.25
2022-09-07T20:40:58.731Z,1.33
2022-09-07T20:44:40.581Z,2.70
2022-09-07T20:48:22.541Z,1.67
2022-09-07T20:52:04.384Z,1.53
2022-09-07T20:55:46.231Z,1.60
2022-09-07T20:59:28.183Z,1.90
2022-09-07T21:03:10.672Z,1.83
2022-09-07T21:06:53.089Z,2.08
2022-09-07T21:10:39.654Z,1.98
2022-09-07T21:14:22.323Z,1.90
2022-09-07T21:18:04.423Z,1.95
2022-09-07T21:21:46.328Z,2.20
2022-09-07T21:25:28.344Z,1.90
2022-09-07T21:29:24.212Z,1.67
2022-09-07T21:33:06.103Z,1.92
2022-09-07T21:36:48.063Z,1.52
2022-09-07T21:40:29.951Z,1.43
2022-09-07T21:44:13.829Z,2.00
2022-09-07T21:47:55.868Z,1.90
2022-09-07T21:51:38.246Z,1.45
2022-09-07T21:55:20.348Z,1.85
2022-09-07T21:59:02.795Z,1.75
2022-09-07T22:02:44.778Z,2.10
2022-09-07T22:06:30.155Z,1.80
2022-09-07T22:10:12.265Z,1.77
2022-09-07T22:13:56.117Z,1.70
2022-09-07T22:17:42.292Z,1.93
2022-09-07T22:21:29.029Z,1.73
2022-09-07T22:25:11.384Z,2.00
2022-09-07T22:28:53.596Z,1.80
2022-09-07T22:32:35.512Z,1.63
2022-09-07T22:36:29.171Z,2.25
2022-09-07T22:40:12.382Z,1.60
2022-09-07T22:43:55.015Z,1.83
2022-09-07T22:47:37.073Z,2.15
2022-09-07T22:51:18.965Z,1.80
2022-09-07T22:55:00.865Z,1.80
2022-09-07T22:58:47.350Z,1.73
2022-09-07T23:02:29.202Z,1.80
2022-09-07T23:06:22.906Z,1.90
2022-09-07T23:10:04.959Z,1.83
2022-09-07T23:13:53.815Z,1.70
2022-09-07T23:17:35.810Z,2.33
2022-09-07T23:21:18.530Z,2.03
2022-09-07T23:25:00.409Z,1.90
2022-09-07T23:28:42.674Z,2.03
2022-09-07T23:32:24.518Z,2.33
2022-09-07T23:36:08.210Z,1.83
2022-09-07T23:39:50.154Z,2.00
2022-09-07T23:43:32.297Z,1.67
2022-09-07T23:47:15.025Z,2.00
2022-09-07T23:50:56.982Z,2.05
2022-09-07T23:54:39.127Z,1.75
2022-09-07T23:58:22.263Z,1.40
